sensor_id;sensor_type;location;lat;lon;timestamp;P1;durP1;ratioP1;P2;durP2;ratioP2
19183;SDS011;9724;51.194;6.856;2024-03-17T00:01:33;9.90;;;4.97;;
19183;SDS011;9724;51.194;6.856;2024-03-17T00:04:00;11.23;;;5.80;;
19183;SDS011;9724;51.194;6.856;2024-03-17T00:06:26;12.07;;;5.63;;
19183;SDS011;9724;51.194;6.856;2024-03-17T00:08:53;11.80;;;5.83;;
19183;SDS011;9724;51.194;6.856;2024-03-17T00:11:20;14.87;;;6.27;;
19183;SDS011;9724;51.194;6.856;2024-03-17T00:13:46;12.57;;;5.67;;
19183;SDS011;9724;51.194;6.856;2024-03-17T00:16:13;11.70;;;5.90;;
19183;SDS011;9724;51.194;6.856;2024-03-17T00:18:39;15.53;;;5.87;;
19183;SDS011;9724;51.194;6.856;2024-03-17T00:21:06;9.70;;;5.63;;
19183;SDS011;9724;51.194;6.856;2024-03-17T00:23:33;13.53;;;6.07;;
19183;SDS011;9724;51.194;6.856;2024-03-17T00:25:59;12.97;;;5.83;;
19183;SDS011;9724;51.194;6.856;2024-03-17T00:28:25;10.27;;;5.50;;
19183;SDS011;9724;51.194;6.856;2024-03-17T00:30:51;9.73;;;5.60;;
19183;SDS011;9724;51.194;6.856;2024-03-17T00:33:18;10.30;;;5.60;;
19183;SDS011;9724;51.194;6.856;2024-03-17T00:35:44;12.17;;;5.40;;
19183;SDS011;9724;51.194;6.856;2024-03-17T00:38:10;11.63;;;5.73;;
19183;SDS011;9724;51.194;6.856;2024-03-17T00:40:38;9.43;;;5.37;;
19183;SDS011;9724;51.194;6.856;2024-03-17T00:43:06;12.40;;;5.50;;
19183;SDS011;9724;51.194;6.856;2024-03-17T00:45:32;12.37;;;5.40;;
19183;SDS011;9724;51.194;6.856;2024-03-17T00:47:58;10.63;;;5.37;;
19183;SDS011;9724;51.194;6.856;2024-03-17T00:50:24;8.93;;;5.47;;
19183;SDS011;9724;51.194;6.856;2024-03-17T00:52:50;14.80;;;5.50;;
19183;SDS011;9724;51.194;6.856;2024-03-17T00:55:16;10.20;;;5.43;;
19183;SDS011;9724;51.194;6.856;2024-03-17T00:57:43;10.77;;;5.20;;
19183;SDS011;9724;51.194;6.856;2024-03-17T01:00:10;13.47;;;5.27;;
19183;SDS011;9724;51.194;6.856;2024-03-17T01:02:37;10.50;;;5.33;;
19183;SDS011;9724;51.194;6.856;2024-03-17T01:05:05;9.70;;;5.20;;
19183;SDS011;9724;51.194;6.856;2024-03-17T01:07:32;8.83;;;5.10;;
19183;SDS011;9724;51.194;6.856;2024-03-17T01:09:58;10.93;;;5.60;;
19183;SDS011;9724;51.194;6.856;2024-03-17T01:12:24;8.63;;;5.07;;
19183;SDS011;9724;51.194;6.856;2024-03-17T01:14:51;9.47;;;5.13;;
19183;SDS011;9724;51.194;6.856;2024-03-17T01:17:17;11.50;;;5.33;;
19183;SDS011;9724;51.194;6.856;2024-03-17T01:19:44;10.27;;;5.50;;
19183;SDS011;9724;51.194;6.856;2024-03-17T01:22:10;10.90;;;5.30;;
19183;SDS011;9724;51.194;6.856;2024-03-17T01:24:36;10.93;;;5.40;;
19183;SDS011;9724;51.194;6.856;2024-03-17T01:27:05;12.77;;;5.57;;
19183;SDS011;9724;51.194;6.856;2024-03-17T01:29:31;11.40;;;4.87;;
19183;SDS011;9724;51.194;6.856;2024-03-17T01:31:58;8.57;;;5.40;;
19183;SDS011;9724;51.194;6.856;2024-03-17T01:34:25;8.17;;;5.10;;
19183;SDS011;9724;51.194;6.856;2024-03-17T01:36:51;8.80;;;5.30;;
19183;SDS011;9724;51.194;6.856;2024-03-17T01:39:17;8.80;;;5.27;;
19183;SDS011;9724;51.194;6.856;2024-03-17T01:41:44;8.57;;;5.40;;
19183;SDS011;9724;51.194;6.856;2024-03-17T01:44:16;11.10;;;4.93;;
19183;SDS011;9724;51.194;6.856;2024-03-17T01:46:47;12.27;;;5.30;;
19183;SDS011;9724;51.194;6.856;2024-03-17T01:49:14;16.07;;;5.63;;
19183;SDS011;9724;51.194;6.856;2024-03-17T01:51:42;10.17;;;5.23;;
19183;SDS011;9724;51.194;6.856;2024-03-17T01:54:08;11.43;;;5.33;;
19183;SDS011;9724;51.194;6.856;2024-03-17T01:56:34;10.50;;;5.47;;
19183;SDS011;9724;51.194;6.856;2024-03-17T01:59:00;10.90;;;5.20;;
19183;SDS011;9724;51.194;6.856;2024-03-17T02:01:27;10.17;;;4.90;;
19183;SDS011;9724;51.194;6.856;2024-03-17T02:03:53;8.73;;;5.33;;
19183;SDS011;9724;51.194;6.856;2024-03-17T02:06:20;13.37;;;5.40;;
19183;SDS011;9724;51.194;6.856;2024-03-17T02:08:46;9.37;;;4.63;;
19183;SDS011;9724;51.194;6.856;2024-03-17T02:11:23;11.60;;;5.30;;
19183;SDS011;9724;51.194;6.856;2024-03-17T02:13:50;10.57;;;5.13;;
19183;SDS011;9724;51.194;6.856;2024-03-17T02:16:16;9.60;;;5.47;;
19183;SDS011;9724;51.194;6.856;2024-03-17T02:18:42;8.63;;;4.60;;
19183;SDS011;9724;51.194;6.856;2024-03-17T02:21:08;10.20;;;5.00;;
19183;SDS011;9724;51.194;6.856;2024-03-17T02:23:35;7.07;;;5.30;;
19183;SDS011;9724;51.194;6.856;2024-03-17T02:26:04;10.10;;;4.80;;
19183;SDS011;9724;51.194;6.856;2024-03-17T02:28:37;8.70;;;4.50;;
19183;SDS011;9724;51.194;6.856;2024-03-17T02:31:04;12.60;;;5.33;;
19183;SDS011;9724;51.194;6.856;2024-03-17T02:33:32;11.73;;;5.07;;
19183;SDS011;9724;51.194;6.856;2024-03-17T02:35:58;9.23;;;5.07;;
19183;SDS011;9724;51.194;6.856;2024-03-17T02:38:24;11.60;;;5.37;;
19183;SDS011;9724;51.194;6.856;2024-03-17T02:41:06;8.40;;;4.70;;
19183;SDS011;9724;51.194;6.856;2024-03-17T02:43:32;8.60;;;4.70;;
19183;SDS011;9724;51.194;6.856;2024-03-17T02:45:58;9.80;;;4.67;;
19183;SDS011;9724;51.194;6.856;2024-03-17T02:48:25;9.33;;;5.07;;
19183;SDS011;9724;51.194;6.856;2024-03-17T02:50:51;9.43;;;4.97;;
19183;SDS011;9724;51.194;6.856;2024-03-17T02:53:18;8.63;;;5.13;;
19183;SDS011;9724;51.194;6.856;2024-03-17T02:55:45;9.43;;;5.07;;
19183;SDS011;9724;51.194;6.856;2024-03-17T02:58:12;9.10;;;4.87;;
19183;SDS011;9724;51.194;6.856;2024-03-17T03:00:38;8.37;;;5.10;;
19183;SDS011;9724;51.194;6.856;2024-03-17T03:03:05;6.27;;;4.50;;
19183;SDS011;9724;51.194;6.856;2024-03-17T03:05:31;8.07;;;4.80;;
19183;SDS011;9724;51.194;6.856;2024-03-17T03:07:58;8.50;;;5.10;;
19183;SDS011;9724;51.194;6.856;2024-03-17T03:10:24;10.93;;;5.07;;
19183;SDS011;9724;51.194;6.856;2024-03-17T03:12:50;13.20;;;4.83;;
19183;SDS011;9724;51.194;6.856;2024-03-17T03:15:17;11.80;;;5.20;;
19183;SDS011;9724;51.194;6.856;2024-03-17T03:17:44;6.73;;;4.67;;
19183;SDS011;9724;51.194;6.856;2024-03-17T03:20:10;12.77;;;5.17;;
19183;SDS011;9724;51.194;6.856;2024-03-17T03:22:37;9.97;;;5.43;;
19183;SDS011;9724;51.194;6.856;2024-03-17T03:25:04;14.57;;;5.20;;
19183;SDS011;9724;51.194;6.856;2024-03-17T03:27:30;11.37;;;5.50;;
19183;SDS011;9724;51.194;6.856;2024-03-17T03:29:56;9.77;;;5.10;;
19183;SDS011;9724;51.194;6.856;2024-03-17T03:32:23;9.33;;;5.10;;
19183;SDS011;9724;51.194;6.856;2024-03-17T03:34:49;9.23;;;5.00;;
19183;SDS011;9724;51.194;6.856;2024-03-17T03:37:15;13.03;;;4.80;;
19183;SDS011;9724;51.194;6.856;2024-03-17T03:39:42;9.83;;;5.10;;
19183;SDS011;9724;51.194;6.856;2024-03-17T03:42:08;10.67;;;5.33;;
19183;SDS011;9724;51.194;6.856;2024-03-17T03:44:34;9.20;;;5.27;;
19183;SDS011;9724;51.194;6.856;2024-03-17T03:47:00;8.23;;;4.70;;
19183;SDS011;9724;51.194;6.856;2024-03-17T03:49:27;9.40;;;5.00;;
19183;SDS011;9724;51.194;6.856;2024-03-17T03:51:55;9.83;;;5.50;;
19183;SDS011;9724;51.194;6.856;2024-03-17T03:54:21;9.53;;;5.37;;
19183;SDS011;9724;51.194;6.856;2024-03-17T03:56:47;9.23;;;6.17;;
19183;SDS011;9724;51.194;6.856;2024-03-17T03:59:13;15.80;;;6.70;;
19183;SDS011;9724;51.194;6.856;2024-03-17T04:01:39;11.93;;;7.23;;
19183;SDS011;9724;51.194;6.856;2024-03-17T04:04:06;14.07;;;7.17;;
19183;SDS011;9724;51.194;6.856;2024-03-17T04:06:32;12.87;;;7.80;;
19183;SDS011;9724;51.194;6.856;2024-03-17T04:08:59;10.73;;;6.73;;
19183;SDS011;9724;51.194;6.856;2024-03-17T04:11:25;12.37;;;6.93;;
19183;SDS011;9724;51.194;6.856;2024-03-17T04:13:51;12.40;;;6.60;;
19183;SDS011;9724;51.194;6.856;2024-03-17T04:16:17;14.93;;;7.37;;
19183;SDS011;9724;51.194;6.856;2024-03-17T04:18:44;12.27;;;7.00;;
19183;SDS011;9724;51.194;6.856;2024-03-17T04:21:10;13.77;;;6.80;;
19183;SDS011;9724;51.194;6.856;2024-03-17T04:23:37;12.37;;;7.00;;
19183;SDS011;9724;51.194;6.856;2024-03-17T04:26:03;17.53;;;7.77;;
19183;SDS011;9724;51.194;6.856;2024-03-17T04:28:31;14.07;;;7.53;;
19183;SDS011;9724;51.194;6.856;2024-03-17T04:31:04;10.97;;;6.47;;
19183;SDS011;9724;51.194;6.856;2024-03-17T04:33:31;14.67;;;7.33;;
19183;SDS011;9724;51.194;6.856;2024-03-17T04:35:57;13.80;;;7.53;;
19183;SDS011;9724;51.194;6.856;2024-03-17T04:38:23;17.27;;;7.67;;
19183;SDS011;9724;51.194;6.856;2024-03-17T04:40:51;13.83;;;7.60;;
19183;SDS011;9724;51.194;6.856;2024-03-17T04:43:22;17.00;;;7.37;;
19183;SDS011;9724;51.194;6.856;2024-03-17T04:45:49;14.90;;;7.17;;
19183;SDS011;9724;51.194;6.856;2024-03-17T04:48:15;14.67;;;7.20;;
19183;SDS011;9724;51.194;6.856;2024-03-17T04:50:41;12.70;;;7.73;;
19183;SDS011;9724;51.194;6.856;2024-03-17T04:53:07;15.60;;;7.60;;
19183;SDS011;9724;51.194;6.856;2024-03-17T04:55:33;9.87;;;6.67;;
19183;SDS011;9724;51.194;6.856;2024-03-17T04:58:00;11.23;;;6.87;;
19183;SDS011;9724;51.194;6.856;2024-03-17T05:00:26;21.00;;;7.43;;
19183;SDS011;9724;51.194;6.856;2024-03-17T05:02:53;16.83;;;6.67;;
19183;SDS011;9724;51.194;6.856;2024-03-17T05:05:19;10.90;;;6.90;;
19183;SDS011;9724;51.194;6.856;2024-03-17T05:07:45;12.30;;;7.10;;
19183;SDS011;9724;51.194;6.856;2024-03-17T05:10:12;15.13;;;7.37;;
19183;SDS011;9724;51.194;6.856;2024-03-17T05:12:38;15.00;;;7.53;;
19183;SDS011;9724;51.194;6.856;2024-03-17T05:15:06;12.47;;;7.20;;
19183;SDS011;9724;51.194;6.856;2024-03-17T05:17:32;12.30;;;7.27;;
19183;SDS011;9724;51.194;6.856;2024-03-17T05:19:59;11.63;;;7.03;;
19183;SDS011;9724;51.194;6.856;2024-03-17T05:22:25;11.40;;;6.70;;
19183;SDS011;9724;51.194;6.856;2024-03-17T05:24:51;9.30;;;6.13;;
19183;SDS011;9724;51.194;6.856;2024-03-17T05:27:17;12.20;;;6.77;;
19183;SDS011;9724;51.194;6.856;2024-03-17T05:29:43;11.70;;;6.67;;
19183;SDS011;9724;51.194;6.856;2024-03-17T05:32:10;9.90;;;6.00;;
19183;SDS011;9724;51.194;6.856;2024-03-17T05:34:37;11.37;;;6.30;;
19183;SDS011;9724;51.194;6.856;2024-03-17T05:37:03;11.53;;;6.20;;
19183;SDS011;9724;51.194;6.856;2024-03-17T05:39:34;8.80;;;5.80;;
19183;SDS011;9724;51.194;6.856;2024-03-17T05:42:01;10.20;;;5.73;;
19183;SDS011;9724;51.194;6.856;2024-03-17T05:44:29;13.40;;;6.37;;
19183;SDS011;9724;51.194;6.856;2024-03-17T05:46:55;8.43;;;5.80;;
19183;SDS011;9724;51.194;6.856;2024-03-17T05:49:24;11.20;;;6.43;;
19183;SDS011;9724;51.194;6.856;2024-03-17T05:51:50;9.33;;;6.00;;
19183;SDS011;9724;51.194;6.856;2024-03-17T05:54:16;10.20;;;6.17;;
19183;SDS011;9724;51.194;6.856;2024-03-17T05:56:43;8.70;;;5.83;;
19183;SDS011;9724;51.194;6.856;2024-03-17T05:59:09;9.63;;;5.53;;
19183;SDS011;9724;51.194;6.856;2024-03-17T06:01:35;7.07;;;5.73;;
19183;SDS011;9724;51.194;6.856;2024-03-17T06:04:02;10.17;;;6.10;;
19183;SDS011;9724;51.194;6.856;2024-03-17T06:06:34;9.03;;;5.90;;
19183;SDS011;9724;51.194;6.856;2024-03-17T06:09:01;9.80;;;6.00;;
19183;SDS011;9724;51.194;6.856;2024-03-17T06:11:29;12.57;;;6.00;;
19183;SDS011;9724;51.194;6.856;2024-03-17T06:13:56;8.87;;;5.50;;
19183;SDS011;9724;51.194;6.856;2024-03-17T06:16:22;11.03;;;5.70;;
19183;SDS011;9724;51.194;6.856;2024-03-17T06:18:48;10.67;;;5.90;;
19183;SDS011;9724;51.194;6.856;2024-03-17T06:21:17;13.40;;;6.03;;
19183;SDS011;9724;51.194;6.856;2024-03-17T06:23:44;10.37;;;6.10;;
19183;SDS011;9724;51.194;6.856;2024-03-17T06:26:11;6.93;;;5.50;;
19183;SDS011;9724;51.194;6.856;2024-03-17T06:28:38;8.23;;;5.50;;
19183;SDS011;9724;51.194;6.856;2024-03-17T06:31:04;8.47;;;5.30;;
19183;SDS011;9724;51.194;6.856;2024-03-17T06:33:32;10.93;;;5.80;;
19183;SDS011;9724;51.194;6.856;2024-03-17T06:36:01;8.07;;;5.27;;
19183;SDS011;9724;51.194;6.856;2024-03-17T06:38:29;6.77;;;5.07;;
19183;SDS011;9724;51.194;6.856;2024-03-17T06:40:56;8.13;;;5.53;;
19183;SDS011;9724;51.194;6.856;2024-03-17T06:43:22;7.47;;;5.37;;
19183;SDS011;9724;51.194;6.856;2024-03-17T06:45:55;7.30;;;5.30;;
19183;SDS011;9724;51.194;6.856;2024-03-17T06:48:22;8.47;;;4.90;;
19183;SDS011;9724;51.194;6.856;2024-03-17T06:50:49;9.47;;;5.07;;
19183;SDS011;9724;51.194;6.856;2024-03-17T06:53:17;10.80;;;5.43;;
19183;SDS011;9724;51.194;6.856;2024-03-17T06:55:43;10.17;;;4.97;;
19183;SDS011;9724;51.194;6.856;2024-03-17T06:58:14;7.40;;;5.00;;
19183;SDS011;9724;51.194;6.856;2024-03-17T07:00:40;9.50;;;5.00;;
19183;SDS011;9724;51.194;6.856;2024-03-17T07:03:07;5.03;;;4.33;;
19183;SDS011;9724;51.194;6.856;2024-03-17T07:05:34;7.13;;;5.13;;
19183;SDS011;9724;51.194;6.856;2024-03-17T07:08:00;5.77;;;4.53;;
19183;SDS011;9724;51.194;6.856;2024-03-17T07:10:26;10.30;;;5.50;;
19183;SDS011;9724;51.194;6.856;2024-03-17T07:12:52;7.43;;;4.33;;
19183;SDS011;9724;51.194;6.856;2024-03-17T07:15:19;9.17;;;4.73;;
19183;SDS011;9724;51.194;6.856;2024-03-17T07:17:45;5.77;;;4.53;;
19183;SDS011;9724;51.194;6.856;2024-03-17T07:20:11;8.43;;;5.00;;
19183;SDS011;9724;51.194;6.856;2024-03-17T07:22:38;8.47;;;4.77;;
19183;SDS011;9724;51.194;6.856;2024-03-17T07:25:05;5.73;;;4.17;;
19183;SDS011;9724;51.194;6.856;2024-03-17T07:27:31;6.57;;;4.70;;
19183;SDS011;9724;51.194;6.856;2024-03-17T07:30:02;7.10;;;4.30;;
19183;SDS011;9724;51.194;6.856;2024-03-17T07:32:29;6.03;;;5.00;;
19183;SDS011;9724;51.194;6.856;2024-03-17T07:34:57;7.10;;;4.50;;
19183;SDS011;9724;51.194;6.856;2024-03-17T07:37:24;6.47;;;4.87;;
19183;SDS011;9724;51.194;6.856;2024-03-17T07:39:50;9.20;;;4.70;;
19183;SDS011;9724;51.194;6.856;2024-03-17T07:42:16;5.43;;;4.60;;
19183;SDS011;9724;51.194;6.856;2024-03-17T07:44:43;9.77;;;4.90;;
19183;SDS011;9724;51.194;6.856;2024-03-17T07:47:10;12.43;;;4.40;;
19183;SDS011;9724;51.194;6.856;2024-03-17T07:49:37;8.30;;;4.33;;
19183;SDS011;9724;51.194;6.856;2024-03-17T07:52:04;11.07;;;4.93;;
19183;SDS011;9724;51.194;6.856;2024-03-17T07:54:31;5.77;;;4.43;;
19183;SDS011;9724;51.194;6.856;2024-03-17T07:56:57;7.67;;;4.40;;
19183;SDS011;9724;51.194;6.856;2024-03-17T07:59:23;5.57;;;4.73;;
19183;SDS011;9724;51.194;6.856;2024-03-17T08:01:50;8.67;;;4.03;;
19183;SDS011;9724;51.194;6.856;2024-03-17T08:04:16;4.73;;;4.23;;
19183;SDS011;9724;51.194;6.856;2024-03-17T08:06:43;5.33;;;4.07;;
19183;SDS011;9724;51.194;6.856;2024-03-17T08:09:10;9.97;;;4.20;;
19183;SDS011;9724;51.194;6.856;2024-03-17T08:11:37;4.83;;;4.33;;
19183;SDS011;9724;51.194;6.856;2024-03-17T08:14:04;5.03;;;4.10;;
19183;SDS011;9724;51.194;6.856;2024-03-17T08:16:31;5.57;;;3.90;;
19183;SDS011;9724;51.194;6.856;2024-03-17T08:18:57;4.27;;;3.63;;
19183;SDS011;9724;51.194;6.856;2024-03-17T08:21:24;6.30;;;4.40;;
19183;SDS011;9724;51.194;6.856;2024-03-17T08:23:50;7.67;;;4.27;;
19183;SDS011;9724;51.194;6.856;2024-03-17T08:26:17;4.83;;;4.00;;
19183;SDS011;9724;51.194;6.856;2024-03-17T08:28:44;7.53;;;3.80;;
19183;SDS011;9724;51.194;6.856;2024-03-17T08:31:12;7.93;;;4.70;;
19183;SDS011;9724;51.194;6.856;2024-03-17T08:33:38;6.07;;;4.10;;
19183;SDS011;9724;51.194;6.856;2024-03-17T08:36:05;7.20;;;4.33;;
19183;SDS011;9724;51.194;6.856;2024-03-17T08:38:33;9.50;;;4.83;;
19183;SDS011;9724;51.194;6.856;2024-03-17T08:41:02;5.17;;;4.10;;
19183;SDS011;9724;51.194;6.856;2024-03-17T08:43:30;4.93;;;3.83;;
19183;SDS011;9724;51.194;6.856;2024-03-17T08:45:56;4.40;;;4.00;;
19183;SDS011;9724;51.194;6.856;2024-03-17T08:48:25;5.83;;;3.60;;
19183;SDS011;9724;51.194;6.856;2024-03-17T08:50:53;5.87;;;3.73;;
19183;SDS011;9724;51.194;6.856;2024-03-17T08:53:20;3.73;;;3.43;;
19183;SDS011;9724;51.194;6.856;2024-03-17T08:55:46;6.23;;;3.70;;
19183;SDS011;9724;51.194;6.856;2024-03-17T08:58:13;5.17;;;3.73;;
19183;SDS011;9724;51.194;6.856;2024-03-17T09:00:40;4.93;;;3.70;;
19183;SDS011;9724;51.194;6.856;2024-03-17T09:03:06;4.80;;;3.67;;
19183;SDS011;9724;51.194;6.856;2024-03-17T09:05:35;5.63;;;3.60;;
19183;SDS011;9724;51.194;6.856;2024-03-17T09:08:02;7.07;;;3.63;;
19183;SDS011;9724;51.194;6.856;2024-03-17T09:10:28;9.10;;;4.17;;
19183;SDS011;9724;51.194;6.856;2024-03-17T09:12:54;5.43;;;3.90;;
19183;SDS011;9724;51.194;6.856;2024-03-17T09:15:22;8.80;;;3.97;;
19183;SDS011;9724;51.194;6.856;2024-03-17T09:17:49;6.17;;;3.80;;
19183;SDS011;9724;51.194;6.856;2024-03-17T09:20:16;6.37;;;3.90;;
19183;SDS011;9724;51.194;6.856;2024-03-17T09:22:42;5.40;;;4.17;;
19183;SDS011;9724;51.194;6.856;2024-03-17T09:25:09;5.33;;;3.37;;
19183;SDS011;9724;51.194;6.856;2024-03-17T09:27:35;5.80;;;3.57;;
19183;SDS011;9724;51.194;6.856;2024-03-17T09:30:02;4.17;;;3.57;;
19183;SDS011;9724;51.194;6.856;2024-03-17T09:32:32;7.07;;;3.43;;
19183;SDS011;9724;51.194;6.856;2024-03-17T09:34:58;4.43;;;3.53;;
19183;SDS011;9724;51.194;6.856;2024-03-17T09:37:25;5.33;;;3.47;;
19183;SDS011;9724;51.194;6.856;2024-03-17T09:39:51;4.67;;;3.40;;
19183;SDS011;9724;51.194;6.856;2024-03-17T09:42:18;4.87;;;3.60;;
19183;SDS011;9724;51.194;6.856;2024-03-17T09:44:46;4.03;;;3.07;;
19183;SDS011;9724;51.194;6.856;2024-03-17T09:47:18;5.63;;;3.47;;
19183;SDS011;9724;51.194;6.856;2024-03-17T09:49:47;3.63;;;3.30;;
19183;SDS011;9724;51.194;6.856;2024-03-17T09:52:17;5.87;;;3.30;;
19183;SDS011;9724;51.194;6.856;2024-03-17T09:54:46;3.70;;;3.20;;
19183;SDS011;9724;51.194;6.856;2024-03-17T09:57:14;5.80;;;4.13;;
19183;SDS011;9724;51.194;6.856;2024-03-17T09:59:43;5.20;;;3.57;;
19183;SDS011;9724;51.194;6.856;2024-03-17T10:02:09;6.07;;;3.40;;
19183;SDS011;9724;51.194;6.856;2024-03-17T10:04:42;3.97;;;3.30;;
19183;SDS011;9724;51.194;6.856;2024-03-17T10:07:10;5.20;;;3.30;;
19183;SDS011;9724;51.194;6.856;2024-03-17T10:09:36;6.53;;;3.57;;
19183;SDS011;9724;51.194;6.856;2024-03-17T10:12:04;7.27;;;3.30;;
19183;SDS011;9724;51.194;6.856;2024-03-17T10:14:33;6.27;;;3.20;;
19183;SDS011;9724;51.194;6.856;2024-03-17T10:16:59;7.30;;;3.20;;
19183;SDS011;9724;51.194;6.856;2024-03-17T10:19:26;4.47;;;3.40;;
19183;SDS011;9724;51.194;6.856;2024-03-17T10:21:58;5.63;;;3.20;;
19183;SDS011;9724;51.194;6.856;2024-03-17T10:24:26;4.90;;;3.13;;
19183;SDS011;9724;51.194;6.856;2024-03-17T10:26:54;5.80;;;3.37;;
19183;SDS011;9724;51.194;6.856;2024-03-17T10:29:22;11.73;;;3.40;;
19183;SDS011;9724;51.194;6.856;2024-03-17T10:31:50;5.60;;;3.23;;
19183;SDS011;9724;51.194;6.856;2024-03-17T10:34:20;3.67;;;3.20;;
19183;SDS011;9724;51.194;6.856;2024-03-17T10:36:53;4.17;;;3.00;;
19183;SDS011;9724;51.194;6.856;2024-03-17T10:39:32;4.03;;;3.27;;
19183;SDS011;9724;51.194;6.856;2024-03-17T10:42:00;5.40;;;3.43;;
19183;SDS011;9724;51.194;6.856;2024-03-17T10:44:27;5.50;;;3.40;;
19183;SDS011;9724;51.194;6.856;2024-03-17T10:46:54;3.03;;;2.83;;
19183;SDS011;9724;51.194;6.856;2024-03-17T10:49:23;5.67;;;3.10;;
19183;SDS011;9724;51.194;6.856;2024-03-17T10:51:53;4.97;;;3.37;;
19183;SDS011;9724;51.194;6.856;2024-03-17T10:54:24;3.63;;;3.00;;
19183;SDS011;9724;51.194;6.856;2024-03-17T10:56:55;3.13;;;2.83;;
19183;SDS011;9724;51.194;6.856;2024-03-17T10:59:23;3.83;;;3.23;;
19183;SDS011;9724;51.194;6.856;2024-03-17T11:01:54;5.53;;;3.50;;
19183;SDS011;9724;51.194;6.856;2024-03-17T11:04:21;4.47;;;3.30;;
19183;SDS011;9724;51.194;6.856;2024-03-17T11:06:47;4.30;;;3.50;;
19183;SDS011;9724;51.194;6.856;2024-03-17T11:09:14;6.53;;;3.43;;
19183;SDS011;9724;51.194;6.856;2024-03-17T11:11:40;3.50;;;3.10;;
19183;SDS011;9724;51.194;6.856;2024-03-17T11:14:16;5.53;;;3.40;;
19183;SDS011;9724;51.194;6.856;2024-03-17T11:16:44;4.07;;;3.03;;
19183;SDS011;9724;51.194;6.856;2024-03-17T11:19:12;5.03;;;3.50;;
19183;SDS011;9724;51.194;6.856;2024-03-17T11:21:40;4.37;;;3.13;;
19183;SDS011;9724;51.194;6.856;2024-03-17T11:24:06;3.03;;;2.83;;
19183;SDS011;9724;51.194;6.856;2024-03-17T11:26:44;5.63;;;3.27;;
19183;SDS011;9724;51.194;6.856;2024-03-17T11:29:25;6.87;;;3.30;;
19183;SDS011;9724;51.194;6.856;2024-03-17T11:31:52;2.90;;;2.70;;
19183;SDS011;9724;51.194;6.856;2024-03-17T11:34:30;4.67;;;3.20;;
19183;SDS011;9724;51.194;6.856;2024-03-17T11:36:58;7.47;;;3.00;;
19183;SDS011;9724;51.194;6.856;2024-03-17T11:42:15;4.80;;;3.27;;
19183;SDS011;9724;51.194;6.856;2024-03-17T11:44:43;3.70;;;3.40;;
19183;SDS011;9724;51.194;6.856;2024-03-17T11:47:10;6.07;;;2.90;;
19183;SDS011;9724;51.194;6.856;2024-03-17T11:49:37;3.40;;;3.10;;
19183;SDS011;9724;51.194;6.856;2024-03-17T11:52:05;4.47;;;3.03;;
19183;SDS011;9724;51.194;6.856;2024-03-17T11:54:37;5.67;;;3.23;;
19183;SDS011;9724;51.194;6.856;2024-03-17T11:57:04;6.43;;;3.30;;
19183;SDS011;9724;51.194;6.856;2024-03-17T11:59:31;4.17;;;2.93;;
19183;SDS011;9724;51.194;6.856;2024-03-17T12:01:58;4.07;;;3.20;;
19183;SDS011;9724;51.194;6.856;2024-03-17T12:04:25;7.93;;;3.07;;
19183;SDS011;9724;51.194;6.856;2024-03-17T12:06:52;7.27;;;3.13;;
19183;SDS011;9724;51.194;6.856;2024-03-17T12:09:20;7.40;;;3.17;;
19183;SDS011;9724;51.194;6.856;2024-03-17T12:11:47;3.53;;;3.23;;
19183;SDS011;9724;51.194;6.856;2024-03-17T12:14:15;4.00;;;3.53;;
19183;SDS011;9724;51.194;6.856;2024-03-17T12:16:46;4.30;;;3.00;;
19183;SDS011;9724;51.194;6.856;2024-03-17T12:19:14;5.70;;;3.43;;
19183;SDS011;9724;51.194;6.856;2024-03-17T12:21:43;5.27;;;3.00;;
19183;SDS011;9724;51.194;6.856;2024-03-17T12:24:11;5.90;;;3.17;;
19183;SDS011;9724;51.194;6.856;2024-03-17T12:26:40;9.77;;;3.53;;
19183;SDS011;9724;51.194;6.856;2024-03-17T12:29:19;7.57;;;3.20;;
19183;SDS011;9724;51.194;6.856;2024-03-17T12:31:47;5.03;;;3.37;;
19183;SDS011;9724;51.194;6.856;2024-03-17T12:34:13;3.27;;;2.80;;
19183;SDS011;9724;51.194;6.856;2024-03-17T12:36:40;8.03;;;3.27;;
19183;SDS011;9724;51.194;6.856;2024-03-17T12:39:10;6.53;;;3.27;;
19183;SDS011;9724;51.194;6.856;2024-03-17T12:41:36;5.73;;;3.20;;
19183;SDS011;9724;51.194;6.856;2024-03-17T12:44:03;3.73;;;3.13;;
19183;SDS011;9724;51.194;6.856;2024-03-17T12:46:29;6.23;;;3.17;;
19183;SDS011;9724;51.194;6.856;2024-03-17T12:48:58;7.30;;;3.60;;
19183;SDS011;9724;51.194;6.856;2024-03-17T12:51:24;4.50;;;2.90;;
19183;SDS011;9724;51.194;6.856;2024-03-17T12:56:38;7.13;;;3.27;;
19183;SDS011;9724;51.194;6.856;2024-03-17T12:59:23;3.60;;;3.10;;
19183;SDS011;9724;51.194;6.856;2024-03-17T13:02:08;4.87;;;2.80;;
19183;SDS011;9724;51.194;6.856;2024-03-17T13:04:36;6.77;;;3.03;;
19183;SDS011;9724;51.194;6.856;2024-03-17T13:07:09;3.47;;;2.73;;
19183;SDS011;9724;51.194;6.856;2024-03-17T13:09:36;3.57;;;2.80;;
19183;SDS011;9724;51.194;6.856;2024-03-17T13:12:05;6.27;;;2.90;;
19183;SDS011;9724;51.194;6.856;2024-03-17T13:14:39;4.87;;;3.10;;
19183;SDS011;9724;51.194;6.856;2024-03-17T13:17:06;5.20;;;2.67;;
19183;SDS011;9724;51.194;6.856;2024-03-17T13:19:33;5.67;;;3.00;;
19183;SDS011;9724;51.194;6.856;2024-03-17T13:22:01;5.10;;;2.77;;
19183;SDS011;9724;51.194;6.856;2024-03-17T13:24:28;7.67;;;3.40;;
19183;SDS011;9724;51.194;6.856;2024-03-17T13:26:54;2.87;;;2.47;;
19183;SDS011;9724;51.194;6.856;2024-03-17T13:29:24;3.83;;;2.53;;
19183;SDS011;9724;51.194;6.856;2024-03-17T13:31:50;2.93;;;2.40;;
19183;SDS011;9724;51.194;6.856;2024-03-17T13:34:16;3.23;;;2.60;;
19183;SDS011;9724;51.194;6.856;2024-03-17T13:36:44;4.30;;;2.60;;
19183;SDS011;9724;51.194;6.856;2024-03-17T13:39:10;10.37;;;2.77;;
19183;SDS011;9724;51.194;6.856;2024-03-17T13:41:36;6.03;;;2.60;;
19183;SDS011;9724;51.194;6.856;2024-03-17T13:44:03;5.67;;;3.10;;
19183;SDS011;9724;51.194;6.856;2024-03-17T13:46:29;3.17;;;2.60;;
19183;SDS011;9724;51.194;6.856;2024-03-17T13:48:57;4.50;;;2.90;;
19183;SDS011;9724;51.194;6.856;2024-03-17T13:51:32;3.87;;;2.97;;
19183;SDS011;9724;51.194;6.856;2024-03-17T13:53:58;4.97;;;2.90;;
19183;SDS011;9724;51.194;6.856;2024-03-17T13:56:24;7.00;;;2.93;;
19183;SDS011;9724;51.194;6.856;2024-03-17T13:58:52;3.77;;;2.63;;
19183;SDS011;9724;51.194;6.856;2024-03-17T14:01:18;6.30;;;2.47;;
19183;SDS011;9724;51.194;6.856;2024-03-17T14:03:45;4.90;;;3.20;;
19183;SDS011;9724;51.194;6.856;2024-03-17T14:06:11;4.83;;;3.00;;
19183;SDS011;9724;51.194;6.856;2024-03-17T14:08:38;3.67;;;2.77;;
19183;SDS011;9724;51.194;6.856;2024-03-17T14:11:04;5.23;;;2.67;;
19183;SDS011;9724;51.194;6.856;2024-03-17T14:13:30;4.07;;;2.70;;
19183;SDS011;9724;51.194;6.856;2024-03-17T14:15:56;7.53;;;3.10;;
19183;SDS011;9724;51.194;6.856;2024-03-17T14:18:23;3.43;;;2.47;;
19183;SDS011;9724;51.194;6.856;2024-03-17T14:20:50;4.90;;;2.53;;
19183;SDS011;9724;51.194;6.856;2024-03-17T14:23:16;5.57;;;2.60;;
19183;SDS011;9724;51.194;6.856;2024-03-17T14:25:42;4.00;;;2.80;;
19183;SDS011;9724;51.194;6.856;2024-03-17T14:28:09;5.60;;;3.17;;
19183;SDS011;9724;51.194;6.856;2024-03-17T14:30:35;5.83;;;2.97;;
19183;SDS011;9724;51.194;6.856;2024-03-17T14:33:01;5.43;;;3.23;;
19183;SDS011;9724;51.194;6.856;2024-03-17T14:35:31;7.33;;;3.40;;
19183;SDS011;9724;51.194;6.856;2024-03-17T14:37:58;4.20;;;3.30;;
19183;SDS011;9724;51.194;6.856;2024-03-17T14:40:25;5.43;;;3.00;;
19183;SDS011;9724;51.194;6.856;2024-03-17T14:42:54;4.33;;;2.70;;
19183;SDS011;9724;51.194;6.856;2024-03-17T14:45:21;3.37;;;2.90;;
19183;SDS011;9724;51.194;6.856;2024-03-17T14:47:49;3.07;;;2.80;;
19183;SDS011;9724;51.194;6.856;2024-03-17T14:50:15;4.07;;;2.80;;
19183;SDS011;9724;51.194;6.856;2024-03-17T14:52:42;6.07;;;3.00;;
19183;SDS011;9724;51.194;6.856;2024-03-17T14:55:12;4.67;;;2.63;;
19183;SDS011;9724;51.194;6.856;2024-03-17T14:57:39;3.93;;;2.67;;
19183;SDS011;9724;51.194;6.856;2024-03-17T15:00:06;3.03;;;2.60;;
19183;SDS011;9724;51.194;6.856;2024-03-17T15:02:39;3.60;;;2.93;;
19183;SDS011;9724;51.194;6.856;2024-03-17T15:05:05;6.67;;;2.70;;